Time;durP1;ratioP1;P1;durP2;ratioP2;P2;SDS_P1;SDS_P2;PMS_P1;PMS_P2;Temp;Humidity;BMP_temperature;BMP_pressure;BME280_temperature;BME280_humidity;BME280_pressure;Samples;Min_cycle;Max_cycle;Signal;HPM_P1;HPM_P2
2024/04/04 00:00:27;;;;;;;6.10;3.30;;;;;;;10.45;55.14;98687.50;105313;1261;95885;-82
2024/04/04 00:03:15;;;;;;;6.90;3.40;;;;;;;10.42;55.76;98685.91;105556;1251;205652;-80
2024/04/04 00:05:43;;;;;;;5.50;3.00;;;;;;;10.43;56.04;98682.81;106001;1258;95337;-81
2024/04/04 00:08:12;;;;;;;7.30;3.20;;;;;;;10.45;55.89;98686.63;105666;1254;95198;-81
2024/04/04 00:10:42;;;;;;;6.50;3.60;;;;;;;10.42;56.03;98684.51;105664;1260;107290;-82
2024/04/04 00:13:11;;;;;;;9.40;3.90;;;;;;;10.37;55.48;98681.34;105721;1259;95352;-81
2024/04/04 00:15:40;;;;;;;6.10;3.80;;;;;;;10.31;55.74;98689.06;105765;1256;107769;-82
2024/04/04 00:18:09;;;;;;;7.10;4.10;;;;;;;10.28;56.37;98689.14;105617;1261;97937;-82
2024/04/04 00:20:41;;;;;;;7.20;4.00;;;;;;;10.28;56.40;98691.77;106096;1251;96652;-82
2024/04/04 00:23:09;;;;;;;6.80;3.60;;;;;;;10.28;55.83;98687.40;106281;1251;110267;-82
2024/04/04 10:03:34;;;;;;;2.90;1.90;;;;;;;15.06;64.15;98766.96;102054;1298;636059;-76
2024/04/04 10:06:02;;;;;;;2.40;1.50;;;;;;;15.12;64.38;98762.30;104300;1281;95277;-76
2024/04/04 10:08:30;;;;;;;2.30;1.60;;;;;;;15.20;64.23;98767.63;104562;1270;95287;-77
2024/04/04 10:11:04;;;;;;;3.10;1.80;;;;;;;15.22;64.24;98770.47;104377;1271;108993;-77
2024/04/04 10:13:32;;;;;;;2.30;1.30;;;;;;;15.25;64.05;98766.42;104512;1273;95334;-77
2024/04/04 10:16:01;;;;;;;2.80;1.40;;;;;;;15.28;64.14;98772.33;104795;1264;107706;-77
2024/04/04 10:18:30;;;;;;;2.40;1.50;;;;;;;15.30;64.05;98767.66;104913;1270;95347;-76
2024/04/04 10:21:00;;;;;;;3.10;1.60;;;;;;;15.33;63.94;98769.76;104915;1262;95349;-76
2024/04/04 10:23:28;;;;;;;3.70;1.50;;;;;;;15.35;63.94;98774.04;104922;1261;108427;-76
2024/04/04 10:26:07;;;;;;;2.80;1.60;;;;;;;15.37;63.85;98771.64;105020;1262;95506;-76
2024/04/04 10:28:35;;;;;;;2.10;1.60;;;;;;;15.38;63.74;98769.98;104932;1258;107468;-76
2024/04/04 10:31:03;;;;;;;2.20;1.40;;;;;;;15.38;63.81;98770.12;105130;1257;96677;-77
2024/04/04 10:33:31;;;;;;;3.70;1.80;;;;;;;15.39;63.62;98775.45;105336;1256;96556;-76
2024/04/04 10:36:01;;;;;;;2.80;1.70;;;;;;;15.37;63.56;98778.83;105363;1256;109497;-77
2024/04/04 10:38:28;;;;;;;4.80;2.10;;;;;;;15.36;63.57;98775.71;105193;1254;97917;-77
2024/04/04 10:40:56;;;;;;;2.90;1.70;;;;;;;15.33;63.38;98779.88;105155;1257;107704;-77
2024/04/04 10:43:24;;;;;;;6.10;2.40;;;;;;;15.25;63.09;98782.52;105295;1259;96665;-76
2024/04/04 10:45:54;;;;;;;8.10;3.30;;;;;;;15.15;63.03;98784.70;105281;1257;96622;-77
2024/04/04 10:48:21;;;;;;;4.20;2.60;;;;;;;15.09;63.04;98785.62;105517;1255;111040;-77
2024/04/04 10:50:49;;;;;;;3.80;1.80;;;;;;;15.05;62.95;98785.14;105048;1258;97938;-76
2024/04/04 10:53:17;;;;;;;2.80;1.50;;;;;;;15.03;63.02;98785.62;105022;1259;107942;-77
2024/04/04 10:55:45;;;;;;;3.20;1.90;;;;;;;15.04;62.88;98788.09;105039;1254;97153;-77
2024/04/04 10:58:13;;;;;;;4.20;1.70;;;;;;;15.05;62.90;98789.29;104988;1259;96874;-77
2024/04/04 11:00:41;;;;;;;3.60;1.90;;;;;;;15.06;62.79;98791.08;105355;1257;110119;-78
2024/04/04 11:03:11;;;;;;;2.80;1.40;;;;;;;15.08;62.74;98789.61;105075;1257;97873;-76
2024/04/04 11:05:40;;;;;;;2.70;1.60;;;;;;;15.09;62.73;98789.33;104989;1258;107786;-76
2024/04/04 11:08:08;;;;;;;7.30;1.80;;;;;;;15.07;62.42;98785.31;105320;1266;96649;-77
2024/04/04 11:10:43;;;;;;;3.10;1.90;;;;;;;15.04;62.39;98787.89;105065;1257;96609;-77
2024/04/04 11:13:10;;;;;;;3.50;1.70;;;;;;;15.03;62.33;98787.28;105210;1256;110407;-77
2024/04/04 11:15:38;;;;;;;4.60;1.90;;;;;;;15.02;62.29;98786.08;105356;1255;96636;-77
2024/04/04 11:18:07;;;;;;;4.60;1.80;;;;;;;15.01;62.19;98787.77;105123;1259;105682;-76
2024/04/04 11:20:35;;;;;;;3.50;1.80;;;;;;;14.98;62.04;98784.67;105186;1256;97489;-77
2024/04/04 11:23:03;;;;;;;3.80;2.00;;;;;;;14.96;61.81;98789.55;105337;1253;96699;-76
2024/04/04 11:25:30;;;;;;;5.20;2.30;;;;;;;14.94;61.90;98787.05;105318;1257;109654;-76
2024/04/04 11:27:58;;;;;;;5.10;2.20;;;;;;;14.92;61.78;98789.01;105071;1268;97158;-76
2024/04/04 11:30:26;;;;;;;4.80;2.20;;;;;;;14.88;61.66;98788.98;105259;1254;107558;-77
2024/04/04 11:32:54;;;;;;;4.00;1.70;;;;;;;14.86;61.61;98789.88;105228;1258;96650;-76
2024/04/04 11:35:21;;;;;;;4.10;1.90;;;;;;;14.84;61.45;98788.73;105033;1259;96754;-77
2024/04/04 11:37:49;;;;;;;3.20;1.90;;;;;;;14.83;61.47;98790.02;105372;1254;109689;-77
2024/04/04 11:40:17;;;;;;;6.40;1.70;;;;;;;14.84;61.56;98788.70;105018;1258;97944;-77
2024/04/04 11:42:44;;;;;;;3.10;1.80;;;;;;;14.85;61.39;98792.17;105262;1258;107617;-76
2024/04/04 11:45:12;;;;;;;3.00;1.50;;;;;;;14.86;61.31;98790.48;105274;1266;96609;-76
2024/04/04 11:47:42;;;;;;;2.40;1.50;;;;;;;14.88;61.37;98788.69;105228;1258;96617;-76
2024/04/04 11:50:09;;;;;;;4.60;1.70;;;;;;;14.89;61.05;98781.77;105350;1253;109374;-76
2024/04/04 11:52:37;;;;;;;2.50;1.40;;;;;;;14.91;61.21;98782.30;105303;1254;96614;-76
2024/04/04 11:55:07;;;;;;;2.70;1.60;;;;;;;14.93;61.27;98778.04;105141;1266;107549;-76
2024/04/04 11:57:34;;;;;;;2.90;1.30;;;;;;;14.96;61.27;98776.14;105048;1260;97371;-76
2024/04/04 12:00:04;;;;;;;3.20;1.50;;;;;;;15.04;61.18;98776.84;105303;1260;96617;-76
2024/04/04 12:02:32;;;;;;;2.10;1.20;;;;;;;15.11;61.24;98768.15;105522;1255;109718;-76
2024/04/04 12:05:00;;;;;;;2.10;1.40;;;;;;;15.16;61.04;98766.00;105354;1257;96971;-76
2024/04/04 12:07:29;;;;;;;2.40;1.50;;;;;;;15.23;61.26;98764.15;105321;1257;108236;-76
2024/04/04 12:09:57;;;;;;;2.90;1.50;;;;;;;15.31;61.04;98768.00;105154;1258;96685;-76
2024/04/04 12:12:25;;;;;;;2.80;1.40;;;;;;;15.38;61.05;98763.55;105241;1254;96695;-76
2024/04/04 12:14:54;;;;;;;2.70;1.40;;;;;;;15.46;60.98;98765.66;105109;1259;108188;-77
2024/04/04 12:17:23;;;;;;;2.80;1.10;;;;;;;15.55;60.99;98767.93;105337;1257;96603;-76
2024/04/04 12:19:50;;;;;;;2.20;1.40;;;;;;;15.60;60.76;98766.34;105160;1257;107725;-77
2024/04/04 12:22:18;;;;;;;3.20;1.70;;;;;;;15.59;60.51;98765.46;105358;1257;97955;-77
2024/04/04 12:24:46;;;;;;;3.80;1.60;;;;;;;15.55;60.31;98758.29;105247;1257;97497;-76
2024/04/04 12:27:14;;;;;;;3.20;1.50;;;;;;;15.54;60.64;98756.48;105348;1254;108723;-76
2024/04/04 12:29:42;;;;;;;2.70;1.40;;;;;;;15.57;60.64;98752.77;105312;1254;97236;-76
2024/04/04 12:32:10;;;;;;;3.00;1.50;;;;;;;15.61;60.59;98747.16;105232;1256;107632;-77
2024/04/04 12:34:39;;;;;;;2.50;1.50;;;;;;;15.68;60.77;98747.28;105328;1254;97543;-76
2024/04/04 12:37:07;;;;;;;3.40;1.50;;;;;;;15.73;60.61;98745.69;105199;1258;96685;-77
2024/04/04 12:39:35;;;;;;;3.40;1.60;;;;;;;15.78;60.53;98744.46;105298;1260;109927;-75
2024/04/04 12:42:03;;;;;;;2.90;1.50;;;;;;;15.85;60.74;98746.09;105083;1258;96655;-77
2024/04/04 12:44:30;;;;;;;3.40;1.60;;;;;;;15.93;60.72;98746.01;105197;1260;107715;-76
2024/04/04 12:47:00;;;;;;;2.30;1.30;;;;;;;15.98;60.46;98741.77;105667;1257;97181;-76
2024/04/04 12:49:27;;;;;;;3.30;1.60;;;;;;;16.03;60.37;98735.23;105342;1253;96595;-77
2024/04/04 12:51:55;;;;;;;2.10;1.20;;;;;;;16.07;60.19;98732.08;105321;1254;110036;-75
2024/04/04 12:54:23;;;;;;;2.00;1.30;;;;;;;16.09;59.97;98732.09;105277;1259;96621;-76
2024/04/04 12:56:51;;;;;;;3.30;1.70;;;;;;;16.08;59.92;98728.98;104924;1260;107406;-77
2024/04/04 12:59:19;;;;;;;2.60;1.50;;;;;;;16.09;60.05;98727.86;105332;1268;97868;-76
2024/04/04 13:01:46;;;;;;;3.20;1.50;;;;;;;16.15;60.25;98729.20;105316;1254;96631;-75
2024/04/04 13:04:14;;;;;;;2.40;1.40;;;;;;;16.19;60.23;98728.35;105000;1266;109953;-76
2024/04/04 13:06:42;;;;;;;2.80;1.40;;;;;;;16.23;59.93;98726.05;105288;1257;97047;-76
2024/04/04 13:09:11;;;;;;;3.00;1.10;;;;;;;16.25;59.88;98727.11;105051;1258;107551;-77
2024/04/04 13:11:39;;;;;;;3.40;1.40;;;;;;;16.28;59.86;98726.23;105223;1257;96732;-77
2024/04/04 13:14:06;;;;;;;3.30;1.40;;;;;;;16.31;59.79;98725.23;105335;1254;96684;-77
2024/04/04 13:16:34;;;;;;;2.30;1.30;;;;;;;16.35;59.68;98724.52;105351;1253;109606;-75
2024/04/04 13:19:03;;;;;;;2.10;1.30;;;;;;;16.34;59.55;98724.16;104991;1258;97862;-76
2024/04/04 13:21:31;;;;;;;1.70;1.10;;;;;;;16.36;59.27;98724.87;105224;1267;107719;-77
2024/04/04 13:23:59;;;;;;;2.40;1.30;;;;;;;16.37;59.43;98725.14;105423;1257;96843;-77
2024/04/04 13:26:27;;;;;;;3.60;1.40;;;;;;;16.37;59.30;98725.48;105343;1257;97960;-77
2024/04/04 13:28:56;;;;;;;2.70;1.30;;;;;;;16.36;59.41;98722.59;105248;1253;109926;-76
2024/04/04 13:31:23;;;;;;;4.00;1.60;;;;;;;16.36;59.24;98729.54;105353;1258;96601;-77
2024/04/04 13:33:52;;;;;;;2.00;1.10;;;;;;;16.39;59.28;98730.29;105049;1258;107637;-77
2024/04/04 13:36:19;;;;;;;2.70;1.60;;;;;;;16.43;59.22;98730.36;105054;1257;96620;-77
2024/04/04 13:38:47;;;;;;;2.30;1.30;;;;;;;16.45;59.00;98726.71;105211;1257;97824;-76
2024/04/04 13:41:23;;;;;;;2.10;1.30;;;;;;;16.45;58.82;98728.96;105287;1257;110383;-77
2024/04/04 13:43:51;;;;;;;2.30;1.10;;;;;;;16.45;58.91;98731.00;105303;1255;96601;-76
2024/04/04 13:46:19;;;;;;;2.60;1.30;;;;;;;16.44;58.98;98734.59;104975;1257;107362;-77
2024/04/04 13:48:47;;;;;;;2.30;1.00;;;;;;;16.43;58.59;98731.81;105314;1257;96701;-77
2024/04/04 13:51:14;;;;;;;1.60;1.10;;;;;;;16.39;58.65;98730.90;105374;1258;97416;-76
2024/04/04 13:53:42;;;;;;;2.90;1.30;;;;;;;16.35;58.40;98729.63;105330;1254;110040;-76
2024/04/04 13:56:10;;;;;;;1.70;1.20;;;;;;;16.32;58.50;98729.47;105288;1258;96717;-76
2024/04/04 13:58:38;;;;;;;2.40;1.20;;;;;;;16.29;58.36;98733.32;105296;1267;105964;-76
2024/04/04 14:01:06;;;;;;;2.50;1.00;;;;;;;16.28;58.43;98731.33;105258;1258;96624;-76
2024/04/04 14:03:36;;;;;;;2.90;1.00;;;;;;;16.26;58.31;98732.92;105090;1258;97180;-76
2024/04/04 14:06:04;;;;;;;2.30;1.40;;;;;;;16.25;58.26;98732.65;105498;1257;109757;-76
2024/04/04 14:08:32;;;;;;;4.00;2.40;;;;;;;16.25;58.32;98728.20;105124;1257;96602;-77
2024/04/04 14:10:59;;;;;;;5.50;3.00;;;;;;;16.25;58.17;98724.45;105316;1257;106811;-77
2024/04/04 14:13:27;;;;;;;8.80;6.70;;;;;;;16.24;58.19;98724.85;105070;1257;98078;-76
2024/04/04 14:15:55;;;;;;;7.50;4.70;;;;;;;16.22;57.91;98731.98;105096;1256;98405;-77
2024/04/04 14:18:23;;;;;;;5.30;2.80;;;;;;;16.21;58.07;98731.64;105050;1255;111254;-77
2024/04/04 14:21:10;;;;;;;3.50;2.30;;;;;;;16.18;57.70;98731.02;105172;1268;97979;-77
2024/04/04 14:23:38;;;;;;;3.80;2.10;;;;;;;16.15;57.68;98730.29;105000;1254;107587;-76
2024/04/04 14:26:06;;;;;;;3.30;1.60;;;;;;;16.10;57.72;98731.09;105294;1266;98054;-77
2024/04/04 14:28:35;;;;;;;2.90;1.60;;;;;;;16.06;57.78;98734.39;105008;1258;97978;-76
2024/04/04 14:31:03;;;;;;;3.10;1.60;;;;;;;16.01;57.57;98732.00;105278;1255;111939;-77
2024/04/04 14:33:32;;;;;;;12.40;6.10;;;;;;;15.97;57.60;98735.46;105256;1258;97963;-77
2024/04/04 14:35:59;;;;;;;6.20;2.80;;;;;;;15.92;57.66;98738.61;104915;1260;106919;-76
2024/04/04 14:38:27;;;;;;;7.30;4.70;;;;;;;15.86;57.31;98740.77;105179;1254;98785;-77
2024/04/04 14:40:55;;;;;;;5.50;2.30;;;;;;;15.84;57.41;98744.63;105307;1254;97959;-76
2024/04/04 14:43:22;;;;;;;2.70;1.70;;;;;;;15.81;57.30;98746.00;105314;1256;111266;-77
2024/04/04 14:45:52;;;;;;;3.00;1.60;;;;;;;15.77;57.40;98745.83;105029;1253;97970;-78
2024/04/04 14:48:20;;;;;;;2.90;1.60;;;;;;;15.74;57.29;98747.91;105381;1257;107209;-78
2024/04/04 14:50:59;;;;;;;2.50;1.70;;;;;;;15.71;57.39;98745.14;105243;1259;99253;-77
2024/04/04 14:53:29;;;;;;;3.40;1.80;;;;;;;15.68;57.28;98743.96;105015;1253;98042;-76
2024/04/04 14:56:10;;;;;;;4.20;1.60;;;;;;;15.66;57.20;98745.60;105161;1253;111361;-77
2024/04/04 14:58:37;;;;;;;4.90;4.20;;;;;;;15.64;57.35;98741.21;105060;1258;97971;-78
2024/04/04 15:01:07;;;;;;;5.80;2.90;;;;;;;15.62;57.20;98738.17;105309;1257;107671;-77
2024/04/04 15:03:38;;;;;;;;;;;;;;;15.60;57.25;98741.23;105177;1257;98001;-78
2024/04/04 15:06:07;;;;;;;11.70;6.90;;;;;;;15.56;57.19;98738.02;105281;1254;98110;-77
2024/04/04 15:08:46;;;;;;;39.20;18.70;;;;;;;15.54;57.22;98737.30;105257;1257;110900;-76
2024/04/04 15:11:14;;;;;;;16.40;7.20;;;;;;;15.53;57.26;98742.27;104970;1261;99344;-76
2024/04/04 15:13:42;;;;;;;15.60;7.10;;;;;;;15.54;57.18;98743.46;105490;1257;107471;-76
2024/04/04 15:16:11;;;;;;;17.20;9.70;;;;;;;15.56;57.17;98741.99;104974;1259;98091;-76
2024/04/04 15:18:38;;;;;;;12.50;6.70;;;;;;;15.58;57.13;98737.83;105338;1253;97965;-76
2024/04/04 15:21:06;;;;;;;23.60;15.00;;;;;;;15.60;57.14;98737.69;105337;1254;111721;-76
2024/04/04 15:23:34;;;;;;;8.60;5.40;;;;;;;15.61;57.07;98737.70;105343;1257;97982;-77
2024/04/04 15:26:01;;;;;;;8.00;4.80;;;;;;;15.61;57.09;98741.21;105312;1261;106275;-77
2024/04/04 15:28:29;;;;;;;10.70;6.10;;;;;;;15.62;57.06;98741.44;105065;1257;97970;-76
2024/04/04 15:30:56;;;;;;;14.30;7.70;;;;;;;15.60;57.01;98741.14;105213;1255;97898;-77
2024/04/04 15:33:24;;;;;;;20.20;11.30;;;;;;;15.59;57.10;98741.30;105023;1260;111358;-76
2024/04/04 15:35:52;;;;;;;31.10;14.90;;;;;;;15.55;57.01;98741.48;105055;1259;98106;-77
2024/04/04 15:38:20;;;;;;;18.10;9.90;;;;;;;15.52;57.06;98741.29;105169;1255;107648;-76
2024/04/04 15:40:47;;;;;;;19.60;12.40;;;;;;;15.48;56.98;98742.42;105159;1259;99202;-77
2024/04/04 15:43:15;;;;;;;19.20;10.40;;;;;;;15.43;57.01;98745.55;105222;1258;98038;-77
2024/04/04 15:45:43;;;;;;;15.10;8.30;;;;;;;15.39;57.02;98745.08;105074;1258;111014;-77
2024/04/04 15:48:10;;;;;;;14.40;8.30;;;;;;;15.35;57.09;98748.68;105570;1255;98116;-76
2024/04/04 15:50:38;;;;;;;9.40;5.70;;;;;;;15.31;57.10;98751.38;105475;1257;107478;-77
2024/04/04 15:53:06;;;;;;;9.80;4.80;;;;;;;15.27;57.08;98751.40;105106;1257;98076;-76
2024/04/04 15:55:33;;;;;;;8.70;5.30;;;;;;;15.23;57.17;98751.77;105429;1253;97942;-77
2024/04/04 15:58:02;;;;;;;7.60;4.80;;;;;;;15.20;57.13;98750.68;105234;1259;111203;-77
2024/04/04 16:00:30;;;;;;;8.60;5.00;;;;;;;15.16;57.12;98753.19;105295;1253;97974;-77
2024/04/04 16:02:57;;;;;;;7.90;4.90;;;;;;;15.12;57.18;98756.05;105285;1253;107640;-77
2024/04/04 16:05:25;;;;;;;9.80;6.00;;;;;;;15.10;57.41;98759.83;105241;1253;99281;-76
2024/04/04 16:07:53;;;;;;;9.50;7.30;;;;;;;15.06;57.29;98756.46;104989;1257;98890;-77
2024/04/04 16:10:20;;;;;;;11.80;7.70;;;;;;;15.03;57.23;98760.48;105098;1259;111484;-75
2024/04/04 16:12:50;;;;;;;12.30;8.10;;;;;;;14.99;57.35;98760.48;105085;1258;98062;-75
2024/04/04 16:15:20;;;;;;;10.50;6.60;;;;;;;14.96;57.27;98764.55;105187;1258;107781;-76
2024/04/04 16:17:47;;;;;;;10.20;7.00;;;;;;;14.93;57.26;98764.31;105208;1258;98897;-76
2024/04/04 16:20:15;;;;;;;7.50;5.20;;;;;;;14.91;57.33;98764.13;105257;1257;98489;-76
2024/04/04 16:22:42;;;;;;;8.00;4.80;;;;;;;14.91;57.31;98771.48;105010;1260;111379;-76
2024/04/04 16:25:10;;;;;;;10.70;4.80;;;;;;;14.87;57.33;98773.58;105373;1257;97965;-76
2024/04/04 16:27:38;;;;;;;7.40;4.90;;;;;;;14.84;57.35;98775.34;105034;1257;107716;-76
2024/04/04 16:30:06;;;;;;;9.90;4.20;;;;;;;14.83;57.25;98777.55;105112;1253;97971;-74
2024/04/04 16:32:35;;;;;;;7.30;4.60;;;;;;;14.82;57.33;98775.29;105207;1257;98445;-76
2024/04/04 16:35:03;;;;;;;10.50;4.60;;;;;;;14.80;57.36;98778.77;105047;1253;111246;-77
2024/04/04 16:37:30;;;;;;;10.50;5.30;;;;;;;14.76;57.27;98782.13;105089;1257;98518;-77
2024/04/04 16:39:58;;;;;;;9.60;5.50;;;;;;;14.71;57.33;98783.63;104998;1274;107265;-77
2024/04/04 16:42:25;;;;;;;10.70;4.50;;;;;;;14.67;57.28;98783.45;105259;1273;97988;-76
2024/04/04 16:44:53;;;;;;;8.10;4.50;;;;;;;14.64;57.29;98786.23;105075;1254;98478;-76
2024/04/04 16:47:21;;;;;;;8.90;4.50;;;;;;;14.61;57.26;98786.36;105304;1255;109924;-77
2024/04/04 16:49:48;;;;;;;7.00;4.30;;;;;;;14.55;57.27;98787.61;105242;1257;98103;-76
2024/04/04 16:52:16;;;;;;;7.30;4.30;;;;;;;14.51;57.23;98791.75;105221;1270;107678;-77
2024/04/04 16:54:44;;;;;;;7.10;4.40;;;;;;;14.46;57.39;98792.92;105199;1258;99295;-77
2024/04/04 16:57:11;;;;;;;8.10;4.10;;;;;;;14.41;57.31;98796.77;105242;1255;98041;-76
2024/04/04 16:59:41;;;;;;;7.80;5.00;;;;;;;14.37;57.29;98799.85;105251;1257;110870;-76
2024/04/04 17:02:09;;;;;;;8.50;6.60;;;;;;;14.31;57.35;98795.00;105212;1258;97907;-77
2024/04/04 17:04:36;;;;;;;9.50;6.50;;;;;;;14.25;57.34;98796.98;105333;1258;107643;-77
2024/04/04 17:07:05;;;;;;;7.80;5.60;;;;;;;14.20;57.34;98797.08;105475;1258;98047;-76
2024/04/04 17:09:33;;;;;;;8.30;4.50;;;;;;;14.15;57.37;98796.67;106532;1255;98401;-76
2024/04/04 17:12:02;;;;;;;6.90;4.60;;;;;;;14.10;57.49;98798.54;105050;1257;111030;-76
2024/04/04 17:14:29;;;;;;;7.00;4.30;;;;;;;14.03;57.42;98803.98;104980;1272;99264;-78
2024/04/04 17:16:57;;;;;;;6.70;4.00;;;;;;;13.96;57.33;98805.29;105210;1255;107653;-78
2024/04/04 17:19:25;;;;;;;13.00;3.90;;;;;;;13.89;57.36;98809.33;105156;1258;98912;-78
2024/04/04 17:21:53;;;;;;;8.30;4.40;;;;;;;13.80;57.39;98811.07;105331;1254;98204;-77
2024/04/04 17:24:20;;;;;;;8.00;4.40;;;;;;;13.73;57.46;98809.58;104988;1261;111760;-72
2024/04/04 17:27:17;;;;;;;13.50;5.60;;;;;;;13.64;57.45;98811.54;106539;1259;98224;-83
2024/04/04 17:30:39;;;;;;;;;;;;;;;13.56;57.64;98810.16;105890;1255;109017;-84
2024/04/04 17:34:03;;;;;;;13.60;6.70;;;;;;;13.45;57.71;98813.39;105761;1259;98054;-83
2024/04/04 17:37:27;;;;;;;13.60;7.80;;;;;;;13.35;57.57;98812.46;106525;1253;97948;-84
2024/04/04 17:40:47;;;;;;;11.00;5.50;;;;;;;13.25;57.83;98815.63;105568;1258;112745;-84
2024/04/04 17:47:35;;;;;;;7.70;3.80;;;;;;;13.09;57.78;98815.60;105514;1267;107569;-83
2024/04/04 17:51:29;;;;;;;6.80;3.90;;;;;;;13.03;57.83;98813.13;105156;1261;98047;-83
2024/04/04 17:54:32;;;;;;;6.30;3.70;;;;;;;12.93;57.84;98812.23;105603;1260;98145;-84
2024/04/04 17:58:32;;;;;;;5.40;2.60;;;;;;;12.81;57.89;98817.70;105082;1267;112434;-84
2024/04/04 18:01:52;;;;;;;;;;;;;;;;;;;;;
2024/04/04 18:06:10;;;;;;;5.30;2.80;;;;;;;12.59;57.86;98827.24;105164;1270;107492;-82
2024/04/04 18:09:57;;;;;;;10.70;5.10;;;;;;;12.46;57.95;98827.02;106095;1257;97782;-84
2024/04/04 18:13:27;;;;;;;;;;;;;;;;;;;;;
2024/04/04 18:20:47;;;;;;;11.20;6.20;;;;;;;12.35;58.24;98827.41;105762;1254;98007;-84
2024/04/04 18:31:52;;;;;;;11.00;5.40;;;;;;;12.19;58.38;98832.64;105281;1254;98199;-82
2024/04/04 18:39:50;;;;;;;9.20;4.60;;;;;;;12.06;58.54;98831.06;106329;1255;98051;-87
2024/04/04 18:43:02;;;;;;;9.20;4.40;;;;;;;11.98;58.61;98832.27;105768;1267;110007;-90
2024/04/04 18:45:44;;;;;;;;;;;;;;;;;;;;;
2024/04/04 18:50:08;;;;;;;;;;;;;;;;;;;;;
2024/04/04 18:52:46;;;;;;;9.70;5.50;;;;;;;11.91;58.89;98835.80;108600;1255;111946;-83
2024/04/04 18:55:17;;;;;;;10.00;5.30;;;;;;;11.88;58.80;98839.09;105531;1255;98007;-83
2024/04/04 18:58:20;;;;;;;9.70;5.20;;;;;;;11.84;58.91;98842.08;105610;1263;108817;-84
2024/04/04 19:01:15;;;;;;;9.50;5.10;;;;;;;11.80;59.01;98847.54;105675;1266;97993;-84
2024/04/04 19:04:53;;;;;;;;;;;;;;;;;;;;;
2024/04/04 19:08:01;;;;;;;;;;;;;;;;;;;;;
2024/04/04 19:11:42;;;;;;;;;;;;;;;;;;;;;
2024/04/04 19:15:15;;;;;;;10.10;5.00;;;;;;;11.63;59.30;98854.55;106535;1260;108899;-85
2024/04/04 19:17:53;;;;;;;9.60;5.20;;;;;;;11.61;59.24;98856.34;107150;1260;97864;-85
2024/04/04 19:20:30;;;;;;;9.80;5.10;;;;;;;11.59;59.21;98855.80;106358;1264;97923;-85
2024/04/04 19:23:08;;;;;;;7.70;4.50;;;;;;;11.56;59.28;98854.23;105470;1255;111118;-85
2024/04/04 19:26:02;;;;;;;7.10;3.80;;;;;;;11.55;59.32;98851.47;106072;1255;98023;-86
2024/04/04 19:28:40;;;;;;;6.70;3.70;;;;;;;11.54;59.34;98849.09;105516;1258;108625;-85
2024/04/04 19:31:23;;;;;;;7.40;4.00;;;;;;;11.53;59.66;98850.96;105691;1258;98017;-86
2024/04/04 19:34:14;;;;;;;;;;;;;;;;;;;;;
2024/04/04 19:37:17;;;;;;;5.20;3.60;;;;;;;11.49;59.70;98844.67;106865;1258;111728;-81
2024/04/04 19:39:59;;;;;;;8.60;3.80;;;;;;;11.46;59.71;98848.78;105617;1253;98005;-82
2024/04/04 19:42:49;;;;;;;6.40;3.30;;;;;;;11.49;59.65;98847.16;103186;1288;636128;-80
2024/04/04 19:45:19;;;;;;;6.20;3.30;;;;;;;11.45;59.72;98843.60;105406;1256;95360;-81
2024/04/04 19:47:47;;;;;;;4.70;3.20;;;;;;;11.42;59.83;98844.14;105528;1263;95288;-79
2024/04/04 19:50:19;;;;;;;6.30;3.10;;;;;;;11.41;59.97;98843.92;104942;1256;107962;-79
2024/04/04 19:53:14;;;;;;;5.00;3.30;;;;;;;11.41;59.94;98847.95;105513;1263;95561;-78
2024/04/04 19:56:05;;;;;;;4.50;2.40;;;;;;;11.42;60.19;98848.61;105120;1256;695903;-79
2024/04/04 19:58:36;;;;;;;7.80;2.40;;;;;;;11.42;60.20;98847.33;105385;1265;95267;-78
2024/04/04 20:01:19;;;;;;;5.50;2.90;;;;;;;11.42;60.54;98853.02;105755;1254;95182;-82
2024/04/04 20:03:55;;;;;;;7.30;2.90;;;;;;;11.41;60.41;98854.91;105568;1259;108782;-83
2024/04/04 20:06:23;;;;;;;4.90;2.80;;;;;;;11.39;60.53;98858.41;105496;1253;95279;-80
2024/04/04 20:10:09;;;;;;;5.60;2.50;;;;;;;11.44;60.59;98852.20;102802;1285;649450;-77
2024/04/04 20:12:36;;;;;;;4.70;2.30;;;;;;;11.40;60.89;98858.54;105551;1257;95370;-79
2024/04/04 20:15:03;;;;;;;4.80;2.70;;;;;;;11.39;60.76;98858.96;105336;1276;96236;-77
2024/04/04 20:17:31;;;;;;;4.10;2.30;;;;;;;11.37;60.80;98852.27;104575;1257;1029381;-77
2024/04/04 20:19:58;;;;;;;3.90;2.70;;;;;;;11.33;60.91;98852.70;104772;1269;95302;-77
2024/04/04 20:22:25;;;;;;;6.20;2.70;;;;;;;11.32;61.00;98851.90;104709;1260;691423;-77
2024/04/04 20:24:52;;;;;;;4.10;2.40;;;;;;;11.30;61.16;98850.25;104933;1263;95279;-79
2024/04/04 20:27:19;;;;;;;3.10;2.10;;;;;;;11.31;61.18;98851.73;104956;1263;95274;-77
2024/04/04 20:29:46;;;;;;;5.70;2.60;;;;;;;11.32;61.22;98847.59;104728;1273;96205;-77
2024/04/04 20:32:13;;;;;;;4.10;2.50;;;;;;;11.33;61.30;98841.36;105231;1263;95288;-79
2024/04/04 20:34:41;;;;;;;4.30;2.90;;;;;;;11.33;61.54;98841.13;105140;1271;96701;-77
2024/04/04 20:37:08;;;;;;;5.10;2.50;;;;;;;11.33;61.84;98843.11;105174;1263;97971;-76
2024/04/04 20:39:35;;;;;;;5.10;2.30;;;;;;;11.35;61.68;98845.64;104946;1264;96633;-77
2024/04/04 20:42:27;;;;;;;4.00;2.30;;;;;;;11.39;61.71;98841.38;102258;1295;636160;-83
2024/04/04 20:44:55;;;;;;;4.40;2.40;;;;;;;11.38;61.90;98839.70;104373;1271;96204;-75
2024/04/04 20:47:23;;;;;;;4.10;2.50;;;;;;;11.36;61.87;98835.92;105285;1260;95193;-74
2024/04/04 20:49:51;;;;;;;4.80;2.10;;;;;;;11.37;61.89;98838.23;105060;1261;109200;-75
2024/04/04 20:52:19;;;;;;;3.40;2.10;;;;;;;11.36;61.95;98834.69;104901;1267;95297;-78
2024/04/04 20:54:49;;;;;;;4.40;1.90;;;;;;;11.37;62.15;98833.20;104521;1264;605777;-82
2024/04/04 20:57:17;;;;;;;2.90;2.00;;;;;;;11.38;62.06;98834.52;105121;1264;95284;-82
2024/04/04 20:59:45;;;;;;;4.80;2.10;;;;;;;11.37;62.08;98832.53;105729;1264;95228;-82
2024/04/04 21:02:15;;;;;;;3.10;2.10;;;;;;;11.37;62.45;98829.16;105470;1264;107721;-80
2024/04/04 21:04:48;;;;;;;4.20;2.10;;;;;;;11.37;62.37;98827.55;108228;1256;95905;-82
2024/04/04 21:07:19;;;;;;;2.80;1.90;;;;;;;11.38;62.34;98832.41;108282;1256;107718;-83
2024/04/04 21:09:48;;;;;;;3.60;2.00;;;;;;;11.40;62.43;98832.44;108289;1256;94285;-82
2024/04/04 21:12:18;;;;;;;3.40;2.00;;;;;;;11.43;62.41;98831.50;108223;1256;94342;-80
2024/04/04 21:14:48;;;;;;;3.00;1.90;;;;;;;11.47;62.42;98831.16;108190;1257;111643;-81
2024/04/04 21:17:26;;;;;;;3.60;2.10;;;;;;;11.53;62.64;98827.37;108250;1256;96796;-82
2024/04/04 21:20:02;;;;;;;2.40;1.70;;;;;;;11.56;62.52;98831.15;108277;1256;107744;-81
2024/04/04 21:22:33;;;;;;;3.20;1.80;;;;;;;11.60;62.67;98835.31;108296;1259;94837;-81
2024/04/04 21:25:05;;;;;;;3.30;1.80;;;;;;;11.63;62.65;98835.19;108282;1256;94621;-82
2024/04/04 21:27:33;;;;;;;4.40;2.00;;;;;;;11.67;62.71;98835.12;108214;1256;110414;-82
2024/04/04 21:30:06;;;;;;;3.50;1.90;;;;;;;11.69;62.76;98834.05;108262;1256;95571;-82
2024/04/04 21:32:40;;;;;;;3.40;2.00;;;;;;;11.70;62.79;98831.79;108283;1257;107772;-82
2024/04/04 21:35:11;;;;;;;2.70;1.60;;;;;;;11.72;62.94;98831.15;108268;1256;94377;-82
2024/04/04 21:37:39;;;;;;;3.70;1.70;;;;;;;11.72;62.83;98829.38;108218;1256;94324;-82
2024/04/04 21:40:12;;;;;;;4.20;1.70;;;;;;;11.73;62.99;98836.17;108178;1257;111267;-82
2024/04/04 21:42:41;;;;;;;;;;;;;;;11.75;62.90;98831.22;108315;1256;95679;-82
2024/04/04 21:45:09;;;;;;;3.10;1.90;;;;;;;11.74;63.03;98829.87;108381;1256;108085;-82
2024/04/04 21:51:05;;;;;;;4.60;1.80;;;;;;;11.81;63.02;98827.53;103423;1297;637969;-81
2024/04/04 21:53:37;;;;;;;2.50;1.70;;;;;;;11.80;63.24;98826.93;105336;1258;95262;-84
2024/04/04 21:56:05;;;;;;;4.00;2.10;;;;;;;11.80;63.10;98829.31;105394;1262;95258;-81
2024/04/04 21:58:33;;;;;;;3.20;1.80;;;;;;;11.79;63.17;98827.41;105370;1264;108517;-80
2024/04/04 22:01:07;;;;;;;2.60;1.80;;;;;;;11.78;63.21;98824.98;105308;1258;95602;-80
2024/04/04 22:03:38;;;;;;;3.10;1.60;;;;;;;11.78;63.33;98825.87;105112;1262;181053;-83
2024/04/04 22:06:06;;;;;;;3.00;1.70;;;;;;;11.78;63.39;98828.73;105368;1261;95312;-82
2024/04/04 22:08:34;;;;;;;3.60;1.60;;;;;;;11.79;63.37;98829.19;105622;1263;95259;-81